Time;durP1;ratioP1;P1;durP2;ratioP2;P2;SDS_P1;SDS_P2;PMS_P1;PMS_P2;Temp;Humidity;BMP_temperature;BMP_pressure;BME280_temperature;BME280_humidity;BME280_pressure;Samples;Min_cycle;Max_cycle;Signal;HPM_P1;HPM_P2
2022/10/07 00:01:02;;;;;;;10.30;7.90;;;;;;;20.08;100.00;97433.72;4963529;28;20070;-44
2022/10/07 00:03:31;;;;;;;10.32;8.82;;;;;;;20.21;100.00;97424.25;4965550;28;20090;-44
2022/10/07 00:06:01;;;;;;;11.10;8.55;;;;;;;20.20;100.00;97423.41;4965188;28;20549;-49
2022/10/07 00:08:30;;;;;;;10.13;8.38;;;;;;;20.04;100.00;97426.22;4966336;28;20078;-47
2022/10/07 00:10:58;;;;;;;11.45;8.95;;;;;;;19.94;100.00;97423.78;4968014;28;20109;-47
2022/10/07 00:13:26;;;;;;;9.45;8.45;;;;;;;19.52;100.00;97433.09;4969605;28;20082;-47
2022/10/07 00:16:03;;;;;;;14.48;8.63;;;;;;;19.66;100.00;97424.34;4966425;28;20085;-47
2022/10/07 00:18:31;;;;;;;12.57;9.13;;;;;;;19.91;100.00;97426.81;4965819;28;20081;-44
2022/10/07 00:21:02;;;;;;;14.40;8.73;;;;;;;20.04;100.00;97426.22;4964433;28;20089;-45
2022/10/07 00:23:30;;;;;;;10.35;8.38;;;;;;;19.92;100.00;97428.47;4965538;28;20074;-48
2022/10/07 00:26:02;;;;;;;11.63;8.82;;;;;;;19.90;100.00;97420.66;4967439;28;20094;-47
2022/10/07 00:28:30;;;;;;;13.98;7.78;;;;;;;19.61;100.00;97421.34;4965111;28;20093;-42
2022/10/07 00:31:00;;;;;;;11.95;8.38;;;;;;;19.49;100.00;97417.41;4964659;28;20078;-44
2022/10/07 00:33:31;;;;;;;11.32;8.88;;;;;;;19.58;100.00;97413.66;4967168;28;20093;-43
2022/10/07 00:35:59;;;;;;;9.95;8.50;;;;;;;19.39;100.00;97414.13;4964728;28;20090;-44
2022/10/07 00:38:27;;;;;;;9.82;7.88;;;;;;;19.44;100.00;97414.41;4965661;28;20093;-44
2022/10/07 00:40:55;;;;;;;9.43;7.88;;;;;;;19.37;100.00;97408.97;4963353;28;20093;-49
2022/10/07 00:43:28;;;;;;;10.23;8.00;;;;;;;19.20;100.00;97407.38;4962154;28;20086;-51
2022/10/07 00:45:58;;;;;;;11.43;7.90;;;;;;;19.26;100.00;97403.16;4963843;28;20548;-46
2022/10/07 00:48:29;;;;;;;;;;;;;;;19.49;100.00;97395.16;4965114;28;20094;-50
2022/10/07 00:50:59;;;;;;;11.38;8.15;;;;;;;19.35;100.00;97394.91;4963755;28;19992;-51
2022/10/07 00:53:30;;;;;;;10.90;9.30;;;;;;;19.19;100.00;97392.34;4965915;28;20090;-45
2022/10/07 00:56:01;;;;;;;14.20;10.02;;;;;;;19.04;100.00;97384.22;4963910;28;20090;-48
2022/10/07 00:58:30;;;;;;;11.40;8.93;;;;;;;18.81;100.00;97384.16;4964408;28;20070;-46
2022/10/07 01:00:59;;;;;;;10.43;9.00;;;;;;;19.18;100.00;97378.13;4964858;28;20093;-44
2022/10/07 01:03:29;;;;;;;13.50;9.70;;;;;;;19.00;100.00;97374.91;4964940;28;20516;-47
2022/10/07 01:05:57;;;;;;;12.57;8.77;;;;;;;19.23;100.00;97376.78;4965134;28;20094;-46
2022/10/07 01:08:26;;;;;;;10.82;8.40;;;;;;;19.40;100.00;97371.13;4963842;28;20082;-48
2022/10/07 01:11:01;;;;;;;12.60;9.18;;;;;;;19.59;100.00;97366.34;4963166;28;20086;-49
2022/10/07 01:13:32;;;;;;;10.80;9.10;;;;;;;19.64;100.00;97358.63;4963278;28;20121;-46
2022/10/07 01:16:05;;;;;;;13.93;9.68;;;;;;;19.72;100.00;97363.06;4964250;28;20538;-43
2022/10/07 01:18:41;;;;;;;15.13;9.02;;;;;;;19.77;100.00;97361.53;4961064;28;20647;-47
2022/10/07 01:21:14;;;;;;;10.55;8.68;;;;;;;19.79;100.00;97356.84;4963326;28;20086;-48
2022/10/07 01:23:55;;;;;;;10.50;8.85;;;;;;;19.80;100.00;97352.31;4965630;28;20082;-46
2022/10/07 01:26:40;;;;;;;12.18;9.15;;;;;;;19.66;100.00;97352.09;4963221;28;20591;-47
2022/10/07 01:29:12;;;;;;;11.80;9.15;;;;;;;19.35;100.00;97357.47;4961960;28;20091;-48
2022/10/07 01:31:43;;;;;;;11.88;9.10;;;;;;;19.80;100.00;97355.81;4960321;28;20083;-48
2022/10/07 01:34:13;;;;;;;10.77;8.63;;;;;;;19.88;100.00;97341.50;4965242;28;20086;-43
2022/10/07 01:36:42;;;;;;;14.50;8.40;;;;;;;19.97;100.00;97343.13;4966462;28;20078;-49
2022/10/07 01:39:12;;;;;;;12.00;8.45;;;;;;;20.03;100.00;97334.34;4965162;28;20074;-42
2022/10/07 01:41:42;;;;;;;10.73;8.18;;;;;;;20.05;100.00;97332.31;4965666;28;20465;-43
2022/10/07 01:44:11;;;;;;;9.47;8.37;;;;;;;20.13;100.00;97320.69;4963306;28;20485;-43
2022/10/07 01:46:40;;;;;;;14.82;9.20;;;;;;;20.06;100.00;97319.75;4967598;28;20089;-49
2022/10/07 01:49:08;;;;;;;11.27;8.60;;;;;;;20.08;100.00;97320.41;4966066;28;20105;-44
2022/10/07 01:51:38;;;;;;;9.98;8.50;;;;;;;20.07;100.00;97324.13;4963773;28;20088;-44
2022/10/07 01:54:15;;;;;;;11.70;8.43;;;;;;;20.10;100.00;97315.72;4964200;28;20089;-44
2022/10/07 01:56:54;;;;;;;13.20;8.65;;;;;;;20.07;100.00;97324.94;4965270;28;20078;-44
2022/10/07 01:59:45;;;;;;;14.38;8.57;;;;;;;20.09;100.00;97320.22;4963338;28;20086;-46
2022/10/07 02:02:22;;;;;;;10.60;8.68;;;;;;;20.15;100.00;97324.84;4963512;28;20101;-44
2022/10/07 02:04:57;;;;;;;11.20;8.57;;;;;;;19.72;100.00;97321.09;4967131;28;20083;-47
2022/10/07 02:07:34;;;;;;;13.57;8.52;;;;;;;20.05;100.00;97324.28;4961814;28;20082;-44
2022/10/07 02:10:10;;;;;;;11.68;8.13;;;;;;;20.23;100.00;97317.72;4958860;28;20082;-43
2022/10/07 02:12:43;;;;;;;9.43;8.40;;;;;;;20.06;100.00;97317.06;4963229;28;20078;-48
2022/10/07 02:15:15;;;;;;;11.80;8.55;;;;;;;19.99;100.00;97313.47;4962513;28;20086;-49
2022/10/07 02:17:46;;;;;;;10.85;8.65;;;;;;;19.68;100.00;97314.41;4963747;28;20086;-46
2022/10/07 02:20:16;;;;;;;10.73;8.70;;;;;;;19.28;100.00;97316.41;4962999;28;20074;-49
2022/10/07 02:22:45;;;;;;;13.10;8.90;;;;;;;19.63;100.00;97316.81;4964612;28;20098;-45
2022/10/07 02:25:15;;;;;;;14.43;8.55;;;;;;;20.00;100.00;97304.44;4962270;28;20075;-44
2022/10/07 02:27:45;;;;;;;10.68;8.55;;;;;;;19.32;100.00;97308.84;4964015;28;20090;-44
2022/10/07 02:30:16;;;;;;;10.27;8.57;;;;;;;19.31;100.00;97317.91;4963437;28;20093;-49
2022/10/07 02:32:47;;;;;;;13.77;8.93;;;;;;;19.42;100.00;97310.28;4962313;28;20090;-50
2022/10/07 02:35:19;;;;;;;10.70;9.27;;;;;;;19.19;100.00;97309.44;4963725;28;20122;-45
2022/10/07 02:37:49;;;;;;;11.60;8.70;;;;;;;19.26;100.00;97307.72;4964633;28;20089;-45
2022/10/07 02:40:17;;;;;;;12.73;9.38;;;;;;;18.68;100.00;97309.88;4963230;28;20083;-46
2022/10/07 02:42:53;;;;;;;11.18;9.40;;;;;;;19.58;100.00;97306.63;4961750;28;20075;-44
2022/10/07 02:45:27;;;;;;;12.63;9.13;;;;;;;19.38;100.00;97302.78;4961951;28;20085;-43
2022/10/07 02:47:58;;;;;;;11.90;8.93;;;;;;;19.62;100.00;97297.22;4963723;28;20711;-46
2022/10/07 02:50:39;;;;;;;13.00;9.45;;;;;;;19.68;100.00;97301.03;4965716;28;20086;-47
2022/10/07 02:53:08;;;;;;;12.68;9.13;;;;;;;19.48;100.00;97300.72;4965528;28;20074;-49
2022/10/07 02:55:36;;;;;;;10.35;9.15;;;;;;;19.46;100.00;97300.03;4965378;28;20093;-47
2022/10/07 02:58:07;;;;;;;12.27;9.25;;;;;;;19.49;100.00;97299.69;4962610;28;20530;-44
2022/10/07 03:00:38;;;;;;;11.00;9.20;;;;;;;19.59;100.00;97294.91;4961371;28;20086;-45
2022/10/07 03:03:06;;;;;;;13.32;9.48;;;;;;;19.59;100.00;97283.38;4965127;28;20086;-48
2022/10/07 03:05:35;;;;;;;12.20;8.35;;;;;;;19.91;100.00;97284.94;4961970;28;20086;-51
2022/10/07 03:08:05;;;;;;;11.82;9.35;;;;;;;19.90;100.00;97284.09;4967223;28;20097;-43
2022/10/07 03:10:33;;;;;;;11.55;9.02;;;;;;;19.28;100.00;97284.31;4965244;28;20086;-45
2022/10/07 03:13:03;;;;;;;10.90;9.38;;;;;;;19.12;100.00;97285.25;4966329;28;20086;-43
2022/10/07 03:15:36;;;;;;;12.63;9.32;;;;;;;19.43;100.00;97282.50;4966375;28;20085;-43
2022/10/07 03:18:24;;;;;;;11.05;8.93;;;;;;;19.76;100.00;97284.09;4963473;28;20090;-48
2022/10/07 03:20:54;;;;;;;12.95;9.60;;;;;;;19.83;100.00;97279.69;4967226;28;20800;-44
2022/10/07 03:23:23;;;;;;;12.13;8.40;;;;;;;20.05;100.00;97269.91;4965707;28;20544;-44
2022/10/07 03:25:52;;;;;;;12.90;9.73;;;;;;;19.96;100.00;97273.66;4968966;28;20082;-44
2022/10/07 03:28:22;;;;;;;11.68;9.25;;;;;;;20.05;100.00;97270.72;4965750;28;20082;-45
2022/10/07 03:30:53;;;;;;;10.57;9.07;;;;;;;19.33;100.00;97275.75;4967556;28;20078;-46
2022/10/07 03:33:24;;;;;;;11.80;9.48;;;;;;;19.93;100.00;97266.84;4964901;28;20497;-47
2022/10/07 03:35:52;;;;;;;12.30;8.85;;;;;;;19.83;100.00;97264.44;4964475;28;20078;-46
2022/10/07 03:38:21;;;;;;;11.90;8.63;;;;;;;20.03;100.00;97272.78;4968696;28;20081;-43
2022/10/07 03:40:49;;;;;;;11.00;9.02;;;;;;;20.12;100.00;97268.97;4964993;28;20090;-43
2022/10/07 03:43:18;;;;;;;12.57;9.30;;;;;;;20.07;100.00;97266.03;4966561;28;20611;-44
2022/10/07 03:45:49;;;;;;;11.20;9.15;;;;;;;20.33;100.00;97259.34;4966292;28;20070;-44
2022/10/07 03:48:19;;;;;;;12.30;9.00;;;;;;;20.33;100.00;97254.81;4965875;28;20083;-45
2022/10/07 03:50:51;;;;;;;11.38;8.52;;;;;;;19.82;100.00;97267.28;4963928;28;20097;-48
2022/10/07 03:53:20;;;;;;;13.93;9.23;;;;;;;20.12;100.00;97263.59;4963173;28;20556;-43
2022/10/07 03:55:48;;;;;;;12.30;8.55;;;;;;;20.25;100.00;97262.97;4965731;28;20093;-43
2022/10/07 03:58:17;;;;;;;10.90;8.50;;;;;;;19.61;100.00;97260.78;4966898;28;20085;-48
2022/10/07 04:00:45;;;;;;;12.95;8.77;;;;;;;19.99;100.00;97252.72;4960456;28;20089;-45
2022/10/07 04:03:14;;;;;;;10.25;8.38;;;;;;;20.27;100.00;97250.22;4963487;28;20079;-44
2022/10/07 04:05:44;;;;;;;9.63;7.78;;;;;;;20.08;100.00;97246.25;4965435;28;20082;-46
2022/10/07 04:08:16;;;;;;;13.13;8.20;;;;;;;20.08;100.00;97250.78;4967816;28;20078;-44
2022/10/07 04:10:44;;;;;;;11.52;7.45;;;;;;;19.98;100.00;97248.38;4966708;28;20082;-45
2022/10/07 04:13:12;;;;;;;9.63;7.93;;;;;;;20.07;100.00;97244.59;4966692;28;20075;-45
2022/10/07 04:15:40;;;;;;;9.40;8.35;;;;;;;20.22;100.00;97249.13;4962207;28;20529;-47
2022/10/07 04:18:10;;;;;;;10.38;8.55;;;;;;;20.02;100.00;97247.00;4963406;28;20556;-47
2022/10/07 04:20:38;;;;;;;10.38;8.20;;;;;;;19.94;100.00;97246.25;4965659;28;20079;-51
2022/10/07 04:23:08;;;;;;;9.43;8.13;;;;;;;20.14;100.00;97234.81;4964827;28;20091;-44
2022/10/07 04:25:37;;;;;;;9.90;7.70;;;;;;;20.25;100.00;97238.03;4965083;28;20079;-44
2022/10/07 04:28:07;;;;;;;10.32;8.10;;;;;;;20.29;100.00;97231.28;4966229;28;20470;-47
2022/10/07 04:30:42;;;;;;;11.85;8.50;;;;;;;20.14;100.00;97233.97;4965396;28;20086;-45
2022/10/07 04:33:12;;;;;;;15.55;8.43;;;;;;;20.11;100.00;97223.63;4965270;28;20090;-46
2022/10/07 04:35:41;;;;;;;10.20;8.52;;;;;;;19.92;100.00;97230.38;4964509;28;20087;-44
2022/10/07 04:38:12;;;;;;;12.35;8.07;;;;;;;20.07;100.00;97225.84;4966302;28;20078;-46
2022/10/07 04:40:40;;;;;;;11.52;8.02;;;;;;;19.91;100.00;97220.69;4968026;28;20090;-46
2022/10/07 04:43:19;;;;;;;11.77;8.48;;;;;;;19.96;100.00;97226.34;4964599;28;20090;-49
2022/10/07 04:45:48;;;;;;;10.57;8.00;;;;;;;19.94;100.00;97220.31;4964594;28;20059;-50
2022/10/07 04:48:18;;;;;;;10.52;8.40;;;;;;;19.92;100.00;97217.84;4964812;28;20089;-47
2022/10/07 04:50:47;;;;;;;12.13;8.20;;;;;;;19.60;100.00;97221.66;4966258;28;20086;-50
2022/10/07 04:53:16;;;;;;;11.27;8.02;;;;;;;19.90;100.00;97213.69;4969032;28;20090;-48
2022/10/07 04:55:46;;;;;;;10.85;8.25;;;;;;;19.91;100.00;97224.19;4968187;28;20094;-51
2022/10/07 04:58:15;;;;;;;12.07;7.93;;;;;;;19.40;100.00;97224.00;4967534;28;20102;-42
2022/10/07 05:00:45;;;;;;;11.30;8.30;;;;;;;19.58;100.00;97222.84;4966716;28;20085;-45
2022/10/07 05:03:14;;;;;;;9.25;8.35;;;;;;;18.91;100.00;97219.06;4966162;28;20490;-48
2022/10/07 05:05:43;;;;;;;14.15;8.65;;;;;;;18.63;100.00;97221.41;4967372;28;20078;-43
2022/10/07 05:08:12;;;;;;;10.63;8.50;;;;;;;18.24;100.00;97218.78;4962717;28;20178;-46
2022/10/07 05:10:42;;;;;;;12.35;8.50;;;;;;;18.48;100.00;97220.50;4964951;28;20082;-48
2022/10/07 05:13:12;;;;;;;13.30;9.18;;;;;;;18.78;100.00;97215.31;4965705;28;20089;-43
2022/10/07 05:15:47;;;;;;;13.43;8.70;;;;;;;19.02;100.00;97223.16;4966130;28;20066;-45
2022/10/07 05:18:17;;;;;;;9.68;8.60;;;;;;;18.98;100.00;97214.66;4969751;28;20087;-47
2022/10/07 05:20:46;;;;;;;14.80;8.80;;;;;;;18.94;100.00;97215.22;4966482;28;20078;-46
2022/10/07 05:23:15;;;;;;;11.82;8.85;;;;;;;18.82;100.00;97221.97;4962555;28;20085;-47
2022/10/07 05:25:45;;;;;;;12.35;8.77;;;;;;;18.61;100.00;97220.75;4962906;28;20093;-41
2022/10/07 05:28:15;;;;;;;11.82;8.70;;;;;;;18.17;100.00;97220.47;4964626;28;20125;-44
2022/10/07 05:30:43;;;;;;;11.60;8.43;;;;;;;18.10;100.00;97217.69;4966136;28;20082;-43
2022/10/07 05:33:12;;;;;;;16.33;8.77;;;;;;;18.00;100.00;97212.53;4965721;28;20848;-47
2022/10/07 05:35:45;;;;;;;10.30;7.88;;;;;;;18.27;100.00;97213.06;4963567;28;20078;-46
2022/10/07 05:38:14;;;;;;;11.43;8.32;;;;;;;18.53;100.00;97210.13;4964097;28;20078;-42
2022/10/07 05:40:42;;;;;;;12.88;8.32;;;;;;;18.69;100.00;97215.34;4967269;28;20093;-45
2022/10/07 05:43:12;;;;;;;12.70;8.40;;;;;;;18.59;100.00;97212.09;4967007;28;20101;-44
2022/10/07 05:45:41;;;;;;;13.57;8.45;;;;;;;18.10;100.00;97209.69;4963373;28;20082;-43
2022/10/07 05:48:09;;;;;;;12.27;8.18;;;;;;;18.74;100.00;97207.66;4963210;28;20078;-43
2022/10/07 05:50:38;;;;;;;11.05;7.80;;;;;;;18.93;100.00;97214.41;4963186;28;20502;-45
2022/10/07 05:53:07;;;;;;;11.63;8.30;;;;;;;18.88;100.00;97216.75;4964949;28;20082;-45
2022/10/07 05:55:40;;;;;;;10.63;7.47;;;;;;;19.05;100.00;97214.78;4967042;28;20612;-48
2022/10/07 05:58:08;;;;;;;9.32;8.07;;;;;;;19.07;100.00;97211.94;4960690;28;20098;-49
2022/10/07 06:00:41;;;;;;;11.27;7.63;;;;;;;19.19;100.00;97216.66;4965317;28;20090;-48
2022/10/07 06:03:09;;;;;;;8.85;7.30;;;;;;;19.20;100.00;97210.34;4967707;28;20089;-43
2022/10/07 06:05:37;;;;;;;13.82;8.60;;;;;;;19.32;100.00;97215.25;4965803;28;20082;-46
2022/10/07 06:08:06;;;;;;;11.38;8.35;;;;;;;19.43;100.00;97206.78;4963982;28;20104;-47
2022/10/07 06:13:20;;;;;;;11.77;8.85;;;;;;;19.17;100.00;97217.88;4964189;28;20485;-43
2022/10/07 06:15:49;;;;;;;11.57;7.88;;;;;;;19.44;100.00;97214.63;4961898;28;20109;-47
2022/10/07 06:18:18;;;;;;;10.27;8.13;;;;;;;19.20;100.00;97221.03;4966201;28;20692;-51
2022/10/07 06:20:53;;;;;;;12.30;8.05;;;;;;;19.52;100.00;97219.06;4968331;28;20093;-46
2022/10/07 06:23:21;;;;;;;15.10;7.95;;;;;;;19.56;100.00;97219.53;4972029;28;20078;-45
2022/10/07 06:25:55;;;;;;;12.23;8.02;;;;;;;19.54;100.00;97219.69;4970524;28;20078;-47
2022/10/07 06:28:23;;;;;;;9.68;7.72;;;;;;;19.45;100.00;97218.97;4962216;28;20226;-45
2022/10/07 06:30:53;;;;;;;8.93;6.68;;;;;;;19.38;100.00;97226.06;4971752;28;20079;-45
2022/10/07 06:33:21;;;;;;;16.93;6.97;;;;;;;19.63;100.00;97223.16;4966345;28;20649;-45
2022/10/07 06:35:50;;;;;;;7.65;6.50;;;;;;;19.27;100.00;97225.63;4960218;28;20078;-48
2022/10/07 06:38:18;;;;;;;12.75;8.60;;;;;;;19.57;100.00;97216.66;4964362;28;20554;-49
2022/10/07 06:40:57;;;;;;;11.63;9.77;;;;;;;19.01;100.00;97221.50;4967164;28;20092;-49
2022/10/07 06:43:26;;;;;;;8.48;7.57;;;;;;;18.68;100.00;97218.19;4970853;28;20462;-46
2022/10/07 06:46:00;;;;;;;11.05;8.38;;;;;;;18.92;100.00;97212.72;4970405;28;20082;-49
2022/10/07 06:48:29;;;;;;;9.32;7.97;;;;;;;18.36;100.00;97219.22;4972571;28;20086;-46
2022/10/07 06:50:58;;;;;;;10.90;8.90;;;;;;;18.85;100.00;97216.28;4969537;28;20091;-45
2022/10/07 06:53:27;;;;;;;11.70;8.70;;;;;;;18.72;100.00;97219.56;4969707;28;20194;-45
2022/10/07 06:55:56;;;;;;;13.95;8.35;;;;;;;19.79;100.00;97214.16;4968402;28;20079;-45
2022/10/07 06:58:25;;;;;;;10.07;8.40;;;;;;;19.42;100.00;97215.81;4971162;28;20084;-44
2022/10/07 07:00:55;;;;;;;10.77;8.23;;;;;;;19.51;100.00;97221.91;4968950;28;20497;-50
2022/10/07 07:03:25;;;;;;;9.15;8.15;;;;;;;19.62;100.00;97213.44;4965745;28;20518;-46
2022/10/07 07:05:53;;;;;;;9.93;8.25;;;;;;;19.43;100.00;97226.31;4971860;28;20071;-46
2022/10/07 07:08:26;;;;;;;9.00;8.10;;;;;;;20.28;100.00;97226.94;4970076;28;20486;-46
2022/10/07 07:10:55;;;;;;;10.68;8.20;;;;;;;20.62;100.00;97226.34;4968315;28;20459;-46
2022/10/07 07:13:23;;;;;;;9.25;8.15;;;;;;;20.56;100.00;97230.63;4968321;28;20465;-46
2022/10/07 07:15:55;;;;;;;11.50;8.80;;;;;;;20.26;100.00;97215.56;4970853;28;20092;-44
2022/10/07 07:18:25;;;;;;;11.70;9.43;;;;;;;20.24;100.00;97217.63;4969441;28;20075;-46
2022/10/07 07:20:53;;;;;;;12.93;9.97;;;;;;;20.10;100.00;97217.47;4966541;28;20083;-46
2022/10/07 07:23:22;;;;;;;14.23;10.73;;;;;;;21.22;100.00;97224.25;4969065;28;20506;-45
2022/10/07 07:25:50;;;;;;;13.13;10.43;;;;;;;20.35;100.00;97226.00;4971699;28;20086;-49
2022/10/07 07:28:19;;;;;;;16.95;11.70;;;;;;;19.78;100.00;97225.84;4966470;28;20106;-47
2022/10/07 07:30:48;;;;;;;12.55;10.30;;;;;;;20.45;100.00;97231.06;4967543;28;20088;-47
2022/10/07 07:33:16;;;;;;;12.40;9.98;;;;;;;21.35;100.00;97223.59;4969398;28;20090;-46
2022/10/07 07:35:46;;;;;;;18.42;11.73;;;;;;;21.30;100.00;97216.06;4966475;28;20199;-43
2022/10/07 07:38:14;;;;;;;23.20;12.73;;;;;;;21.11;100.00;97220.25;4971545;28;20348;-45
2022/10/07 07:40:42;;;;;;;19.58;12.93;;;;;;;20.58;100.00;97225.09;4970950;28;20873;-47
2022/10/07 07:43:10;;;;;;;20.58;12.95;;;;;;;21.19;100.00;97219.28;4968067;28;20082;-44
2022/10/07 07:45:39;;;;;;;25.20;13.60;;;;;;;20.59;100.00;97224.06;4968222;28;20078;-50
2022/10/07 07:48:07;;;;;;;24.15;13.00;;;;;;;22.16;100.00;97208.66;4968652;28;20525;-46
2022/10/07 07:50:35;;;;;;;21.85;14.40;;;;;;;21.80;100.00;97208.84;4966550;28;20117;-48
2022/10/07 07:53:05;;;;;;;24.50;14.93;;;;;;;21.33;100.00;97211.16;4968795;28;20082;-47
2022/10/07 07:55:33;;;;;;;25.33;14.87;;;;;;;22.57;100.00;97204.25;4971095;28;20166;-45
2022/10/07 07:58:01;;;;;;;26.83;15.80;;;;;;;23.08;100.00;97199.22;4969225;28;20070;-47
2022/10/07 08:00:31;;;;;;;30.48;16.85;;;;;;;21.81;100.00;97203.25;4967467;28;20449;-45
2022/10/07 08:03:00;;;;;;;25.63;15.75;;;;;;;22.42;100.00;97201.72;4970091;28;20078;-45
2022/10/07 08:05:28;;;;;;;33.80;19.02;;;;;;;22.35;100.00;97201.72;4971363;28;20066;-44
2022/10/07 08:07:57;;;;;;;39.30;20.85;;;;;;;22.65;100.00;97186.09;4966882;28;20082;-44
2022/10/07 08:10:26;;;;;;;35.72;21.95;;;;;;;21.51;100.00;97208.03;4970236;28;20090;-44
2022/10/07 08:12:55;;;;;;;33.03;21.67;;;;;;;22.32;100.00;97202.09;4968903;28;20074;-45
2022/10/07 08:15:23;;;;;;;37.72;21.55;;;;;;;21.61;100.00;97204.16;4970969;28;20078;-47
2022/10/07 08:17:52;;;;;;;34.20;21.48;;;;;;;22.25;100.00;97198.56;4966716;28;20076;-47
2022/10/07 08:20:20;;;;;;;37.97;21.92;;;;;;;21.71;100.00;97200.13;4971664;28;20082;-44
2022/10/07 08:22:49;;;;;;;32.90;22.27;;;;;;;22.04;100.00;97200.28;4971546;28;20113;-45
2022/10/07 08:25:21;;;;;;;38.50;22.08;;;;;;;22.04;100.00;97194.09;4967821;28;20462;-46
2022/10/07 08:27:50;;;;;;;35.40;21.73;;;;;;;22.69;100.00;97191.91;4967659;28;20073;-45
2022/10/07 08:30:19;;;;;;;39.40;25.00;;;;;;;22.10;100.00;97192.47;4986223;28;20078;-45
2022/10/07 08:32:47;;;;;;;32.35;22.98;;;;;;;20.87;100.00;97200.00;4969375;28;20062;-47
2022/10/07 08:35:16;;;;;;;37.40;24.20;;;;;;;21.05;100.00;97196.88;4962117;28;20075;-46
2022/10/07 08:37:44;;;;;;;34.80;23.30;;;;;;;21.93;100.00;97194.66;4971274;28;20073;-45
2022/10/07 08:40:17;;;;;;;34.55;21.48;;;;;;;21.58;100.00;97188.47;4968496;28;20529;-44
2022/10/07 08:42:47;;;;;;;32.85;22.38;;;;;;;20.74;100.00;97200.69;4961454;28;20101;-46
2022/10/07 08:45:20;;;;;;;34.40;23.25;;;;;;;22.41;100.00;97184.78;4967897;28;20509;-44
2022/10/07 08:47:49;;;;;;;36.38;23.25;;;;;;;21.47;100.00;97185.28;4966719;28;20067;-49
2022/10/07 08:50:20;;;;;;;31.60;22.05;;;;;;;21.96;100.00;97180.84;4969443;28;20074;-46
2022/10/07 08:52:51;;;;;;;34.13;22.95;;;;;;;22.49;100.00;97183.75;4962259;28;20090;-50
2022/10/07 08:55:23;;;;;;;34.13;21.33;;;;;;;22.43;100.00;97176.50;4969821;28;20091;-44
2022/10/07 08:58:16;;;;;;;33.35;22.70;;;;;;;21.46;100.00;97180.09;4968043;28;20442;-44
2022/10/07 09:00:49;;;;;;;35.22;22.33;;;;;;;23.15;100.00;97165.06;4964658;28;20081;-44
2022/10/07 09:03:26;;;;;;;33.47;21.92;;;;;;;23.15;100.00;97164.25;4969353;28;20072;-46
2022/10/07 09:05:55;;;;;;;33.85;22.38;;;;;;;21.31;100.00;97170.28;4967430;28;20070;-44
2022/10/07 09:08:27;;;;;;;29.42;22.35;;;;;;;21.74;100.00;97174.72;4964879;28;20078;-48
2022/10/07 09:11:14;;;;;;;35.05;24.85;;;;;;;21.01;100.00;97172.28;4973488;28;20085;-49
2022/10/07 09:13:46;;;;;;;36.35;22.75;;;;;;;21.89;100.00;97163.88;4970447;28;20078;-47
2022/10/07 09:16:18;;;;;;;31.42;22.85;;;;;;;21.76;100.00;97161.94;4965758;28;20078;-44
2022/10/07 09:18:49;;;;;;;33.55;23.67;;;;;;;22.34;100.00;97157.06;4972797;28;20088;-45
2022/10/07 09:21:22;;;;;;;36.45;23.63;;;;;;;22.61;100.00;97155.28;4969606;28;20063;-48
2022/10/07 09:23:55;;;;;;;33.03;22.90;;;;;;;22.94;100.00;97151.81;4963239;28;20067;-49
2022/10/07 09:26:25;;;;;;;39.50;24.40;;;;;;;23.38;100.00;97147.69;4964874;28;20066;-43
2022/10/07 09:28:53;;;;;;;34.38;24.15;;;;;;;22.84;100.00;97152.19;4968141;28;20070;-44
2022/10/07 09:31:23;;;;;;;36.95;24.48;;;;;;;21.93;100.00;97163.25;4969159;28;20066;-44
2022/10/07 09:33:53;;;;;;;;;;;;;;;21.52;100.00;97156.00;4965416;28;20101;-44
2022/10/07 09:36:21;;;;;;;35.67;22.70;;;;;;;22.06;100.00;97157.13;4969282;28;20388;-44
2022/10/07 09:38:51;;;;;;;37.35;22.60;;;;;;;21.91;100.00;97157.25;4969153;28;20517;-44
2022/10/07 09:41:21;;;;;;;33.05;22.88;;;;;;;22.67;100.00;97151.75;4964762;28;20094;-45
2022/10/07 09:43:59;;;;;;;32.80;22.42;;;;;;;23.24;100.00;97154.94;4967760;28;20066;-48
2022/10/07 09:46:45;;;;;;;31.15;20.90;;;;;;;23.35;100.00;97143.53;4973752;28;20078;-47
2022/10/07 09:49:38;;;;;;;34.22;22.15;;;;;;;22.96;100.00;97142.53;4964841;28;20078;-52
2022/10/07 09:52:14;;;;;;;32.35;21.33;;;;;;;23.31;100.00;97142.31;4964820;28;20073;-44
2022/10/07 09:54:45;;;;;;;27.63;20.98;;;;;;;23.42;100.00;97140.84;4966757;28;20086;-47
2022/10/07 09:57:32;;;;;;;30.10;22.40;;;;;;;23.88;100.00;97137.22;4966263;28;20089;-44
2022/10/07 10:00:21;;;;;;;30.23;21.73;;;;;;;23.69;100.00;97136.25;4966006;28;20069;-44
2022/10/07 10:02:54;;;;;;;31.67;22.73;;;;;;;24.24;100.00;97135.88;4962772;28;20078;-45
2022/10/07 10:05:26;;;;;;;30.20;21.73;;;;;;;23.70;100.00;97132.53;4969950;28;20089;-47
2022/10/07 10:07:58;;;;;;;28.02;20.92;;;;;;;23.78;100.00;97132.31;4968423;28;20521;-47
2022/10/07 10:10:28;;;;;;;28.30;21.45;;;;;;;23.65;100.00;97126.94;4968985;28;20446;-45
2022/10/07 10:12:57;;;;;;;;;;;;;;;24.46;100.00;97129.13;4969943;28;20085;-44
2022/10/07 10:15:29;;;;;;;33.58;24.88;;;;;;;24.62;100.00;97130.50;4963006;28;20089;-49
2022/10/07 10:17:58;;;;;;;35.88;26.88;;;;;;;24.11;100.00;97129.47;4975248;28;20181;-46
2022/10/07 10:20:37;;;;;;;35.40;26.15;;;;;;;23.58;100.00;97126.13;4974721;28;20074;-45
2022/10/07 10:23:26;;;;;;;32.55;24.23;;;;;;;24.37;100.00;97125.84;4971736;28;20295;-50
2022/10/07 10:26:24;;;;;;;29.30;23.05;;;;;;;23.51;100.00;97131.50;4973092;28;20102;-46
2022/10/07 10:29:10;;;;;;;31.48;23.70;;;;;;;23.74;100.00;97117.59;4970203;28;20502;-46
2022/10/07 10:31:48;;;;;;;30.75;23.17;;;;;;;24.15;100.00;97122.63;4973126;28;20078;-46
2022/10/07 10:34:29;;;;;;;30.52;24.05;;;;;;;24.47;100.00;97119.19;4968592;28;20734;-46
2022/10/07 10:36:59;;;;;;;;;;;;;;;24.18;100.00;97105.19;4971994;28;20077;-44
2022/10/07 10:39:39;;;;;;;31.27;22.88;;;;;;;25.22;100.00;97101.19;4974601;28;20710;-43
2022/10/07 10:42:10;;;;;;;28.73;22.77;;;;;;;25.51;91.03;97107.78;4969985;28;20079;-45
2022/10/07 10:44:54;;;;;;;30.27;24.58;;;;;;;25.35;91.85;97097.56;4968519;28;20099;-47
2022/10/07 10:47:27;;;;;;;31.02;24.00;;;;;;;25.47;99.43;97098.47;4969977;28;20461;-46
2022/10/07 10:50:05;;;;;;;30.90;23.60;;;;;;;26.03;86.35;97094.75;4970424;28;20131;-46
2022/10/07 10:52:44;;;;;;;32.53;24.63;;;;;;;25.09;98.31;97096.72;4969682;28;20637;-44
2022/10/07 10:55:32;;;;;;;32.67;24.42;;;;;;;24.46;100.00;97099.47;4972969;28;20101;-49
2022/10/07 10:58:10;;;;;;;33.88;25.48;;;;;;;25.78;96.38;97081.31;4975909;28;20082;-44
2022/10/07 11:00:46;;;;;;;34.42;25.45;;;;;;;25.92;90.03;97089.28;4978668;28;20070;-45
2022/10/07 11:03:35;;;;;;;32.47;25.00;;;;;;;26.74;73.74;97078.81;4967269;28;20085;-46
2022/10/07 11:06:07;;;;;;;32.40;25.02;;;;;;;25.56;94.14;97083.59;4971952;28;20090;-47
2022/10/07 11:08:37;;;;;;;35.45;26.08;;;;;;;26.83;75.52;97079.28;4972228;28;20560;-48
2022/10/07 11:11:07;;;;;;;;;;;;;;;25.01;100.00;97083.50;4975170;28;20074;-46
2022/10/07 11:13:40;;;;;;;35.17;25.98;;;;;;;24.02;100.00;97082.28;4973485;28;20350;-49
2022/10/07 11:16:12;;;;;;;35.28;27.02;;;;;;;24.22;100.00;97078.63;4975976;28;20713;-49
2022/10/07 11:18:44;;;;;;;35.58;27.02;;;;;;;25.07;100.00;97057.50;4968142;28;20078;-46
2022/10/07 11:21:17;;;;;;;34.97;26.90;;;;;;;24.56;100.00;97067.47;4975097;28;20085;-49
2022/10/07 11:23:52;;;;;;;37.30;28.40;;;;;;;23.59;100.00;97063.13;4972133;28;20082;-46
2022/10/07 11:26:23;;;;;;;34.85;26.65;;;;;;;24.91;100.00;97048.09;4966856;28;20089;-44
2022/10/07 11:28:52;;;;;;;38.38;29.38;;;;;;;23.59;100.00;97055.88;4967002;28;20082;-45
2022/10/07 11:31:25;;;;;;;38.20;30.13;;;;;;;25.85;93.91;97042.59;4970091;28;20517;-49
2022/10/07 11:34:04;;;;;;;35.33;27.02;;;;;;;25.32;96.11;97044.81;4969167;28;20584;-44
2022/10/07 11:36:39;;;;;;;31.88;25.45;;;;;;;24.95;100.00;97041.22;4968255;28;20086;-44
2022/10/07 11:39:08;;;;;;;36.08;26.92;;;;;;;25.10;98.44;97041.69;4968374;28;20731;-49